sensor_id;sensor_type;location;lat;lon;timestamp;P1;durP1;ratioP1;P2;durP2;ratioP2
36327;SDS011;22354;50.012;8.264;2022-08-03T00:01:04;4.37;;;2.40;;
36327;SDS011;22354;50.012;8.264;2022-08-03T00:03:29;7.13;;;2.23;;
36327;SDS011;22354;50.012;8.264;2022-08-03T00:05:54;4.53;;;2.40;;
36327;SDS011;22354;50.012;8.264;2022-08-03T00:08:20;3.57;;;2.40;;
36327;SDS011;22354;50.012;8.264;2022-08-03T00:10:45;5.40;;;2.10;;
36327;SDS011;22354;50.012;8.264;2022-08-03T00:13:11;5.67;;;2.40;;
36327;SDS011;22354;50.012;8.264;2022-08-03T00:15:37;3.28;;;2.38;;
36327;SDS011;22354;50.012;8.264;2022-08-03T00:18:07;5.30;;;2.10;;
36327;SDS011;22354;50.012;8.264;2022-08-03T00:20:32;3.58;;;2.17;;
36327;SDS011;22354;50.012;8.264;2022-08-03T00:22:58;5.33;;;2.47;;
36327;SDS011;22354;50.012;8.264;2022-08-03T00:25:23;4.20;;;1.90;;
36327;SDS011;22354;50.012;8.264;2022-08-03T00:27:48;8.03;;;2.00;;
36327;SDS011;22354;50.012;8.264;2022-08-03T00:30:13;4.07;;;2.30;;
36327;SDS011;22354;50.012;8.264;2022-08-03T00:32:39;3.77;;;1.80;;
36327;SDS011;22354;50.012;8.264;2022-08-03T00:35:05;4.03;;;2.03;;
36327;SDS011;22354;50.012;8.264;2022-08-03T00:37:30;5.65;;;2.13;;
36327;SDS011;22354;50.012;8.264;2022-08-03T00:39:55;3.83;;;2.03;;
36327;SDS011;22354;50.012;8.264;2022-08-03T00:42:21;2.33;;;2.00;;
36327;SDS011;22354;50.012;8.264;2022-08-03T00:44:46;4.50;;;2.17;;
36327;SDS011;22354;50.012;8.264;2022-08-03T00:47:11;2.30;;;2.10;;
36327;SDS011;22354;50.012;8.264;2022-08-03T00:49:37;6.70;;;2.30;;
36327;SDS011;22354;50.012;8.264;2022-08-03T00:52:03;3.40;;;2.40;;
36327;SDS011;22354;50.012;8.264;2022-08-03T00:54:29;4.38;;;2.10;;
36327;SDS011;22354;50.012;8.264;2022-08-03T00:56:56;4.43;;;2.35;;
36327;SDS011;22354;50.012;8.264;2022-08-03T00:59:21;5.20;;;2.20;;
36327;SDS011;22354;50.012;8.264;2022-08-03T01:01:46;4.60;;;2.03;;
36327;SDS011;22354;50.012;8.264;2022-08-03T01:04:11;4.00;;;2.10;;
36327;SDS011;22354;50.012;8.264;2022-08-03T01:12:21;2.05;;;1.90;;
36327;SDS011;22354;50.012;8.264;2022-08-03T01:15:00;3.20;;;2.10;;
36327;SDS011;22354;50.012;8.264;2022-08-03T01:20:10;4.85;;;2.30;;
36327;SDS011;22354;50.012;8.264;2022-08-03T01:31:12;3.87;;;2.23;;
36327;SDS011;22354;50.012;8.264;2022-08-03T01:33:43;4.78;;;2.45;;
36327;SDS011;22354;50.012;8.264;2022-08-03T01:36:15;4.38;;;2.05;;
36327;SDS011;22354;50.012;8.264;2022-08-03T01:38:47;2.58;;;1.92;;
36327;SDS011;22354;50.012;8.264;2022-08-03T01:41:16;3.83;;;2.58;;
36327;SDS011;22354;50.012;8.264;2022-08-03T01:43:45;8.52;;;2.78;;
36327;SDS011;22354;50.012;8.264;2022-08-03T01:46:14;5.93;;;2.63;;
36327;SDS011;22354;50.012;8.264;2022-08-03T01:48:41;4.28;;;2.63;;
36327;SDS011;22354;50.012;8.264;2022-08-03T01:51:08;4.22;;;2.53;;
36327;SDS011;22354;50.012;8.264;2022-08-03T01:53:36;8.60;;;3.88;;
36327;SDS011;22354;50.012;8.264;2022-08-03T01:56:06;5.88;;;3.22;;
36327;SDS011;22354;50.012;8.264;2022-08-03T01:58:34;11.00;;;3.88;;
36327;SDS011;22354;50.012;8.264;2022-08-03T02:01:01;7.60;;;4.22;;
36327;SDS011;22354;50.012;8.264;2022-08-03T02:03:28;10.00;;;4.00;;
36327;SDS011;22354;50.012;8.264;2022-08-03T02:05:57;8.32;;;3.78;;
36327;SDS011;22354;50.012;8.264;2022-08-03T02:08:24;8.70;;;3.50;;
36327;SDS011;22354;50.012;8.264;2022-08-03T02:10:54;8.77;;;3.40;;
36327;SDS011;22354;50.012;8.264;2022-08-03T02:13:21;9.02;;;3.78;;
36327;SDS011;22354;50.012;8.264;2022-08-03T02:15:49;7.70;;;3.92;;
36327;SDS011;22354;50.012;8.264;2022-08-03T02:18:16;7.50;;;3.60;;
36327;SDS011;22354;50.012;8.264;2022-08-03T02:20:43;7.57;;;3.55;;
36327;SDS011;22354;50.012;8.264;2022-08-03T02:23:09;7.57;;;3.70;;
36327;SDS011;22354;50.012;8.264;2022-08-03T02:25:37;7.43;;;3.77;;
36327;SDS011;22354;50.012;8.264;2022-08-03T02:28:13;7.82;;;3.63;;
36327;SDS011;22354;50.012;8.264;2022-08-03T02:30:42;7.40;;;3.57;;
36327;SDS011;22354;50.012;8.264;2022-08-03T02:33:11;9.82;;;5.05;;
36327;SDS011;22354;50.012;8.264;2022-08-03T02:35:43;9.03;;;4.90;;
36327;SDS011;22354;50.012;8.264;2022-08-03T02:38:10;11.38;;;4.90;;
36327;SDS011;22354;50.012;8.264;2022-08-03T02:40:38;9.40;;;5.80;;
36327;SDS011;22354;50.012;8.264;2022-08-03T02:43:06;12.13;;;6.03;;
36327;SDS011;22354;50.012;8.264;2022-08-03T02:45:34;13.40;;;6.80;;
36327;SDS011;22354;50.012;8.264;2022-08-03T02:48:03;15.40;;;7.45;;
36327;SDS011;22354;50.012;8.264;2022-08-03T02:50:30;15.10;;;7.87;;
36327;SDS011;22354;50.012;8.264;2022-08-03T02:52:58;15.00;;;7.10;;
36327;SDS011;22354;50.012;8.264;2022-08-03T02:55:26;15.15;;;7.97;;
36327;SDS011;22354;50.012;8.264;2022-08-03T02:57:53;10.93;;;7.28;;
36327;SDS011;22354;50.012;8.264;2022-08-03T03:00:20;11.38;;;6.55;;
36327;SDS011;22354;50.012;8.264;2022-08-03T03:02:46;12.40;;;6.05;;
36327;SDS011;22354;50.012;8.264;2022-08-03T03:05:12;7.83;;;5.50;;
36327;SDS011;22354;50.012;8.264;2022-08-03T03:07:39;9.85;;;5.28;;
36327;SDS011;22354;50.012;8.264;2022-08-03T03:10:06;6.63;;;3.90;;
36327;SDS011;22354;50.012;8.264;2022-08-03T03:12:32;11.23;;;4.22;;
36327;SDS011;22354;50.012;8.264;2022-08-03T03:15:00;5.45;;;3.53;;
36327;SDS011;22354;50.012;8.264;2022-08-03T03:17:26;3.97;;;3.00;;
36327;SDS011;22354;50.012;8.264;2022-08-03T03:19:51;5.37;;;3.00;;
36327;SDS011;22354;50.012;8.264;2022-08-03T03:22:19;4.25;;;2.85;;
36327;SDS011;22354;50.012;8.264;2022-08-03T03:24:45;5.47;;;3.00;;
36327;SDS011;22354;50.012;8.264;2022-08-03T03:27:13;5.00;;;2.85;;
36327;SDS011;22354;50.012;8.264;2022-08-03T03:29:39;7.25;;;2.60;;
36327;SDS011;22354;50.012;8.264;2022-08-03T03:32:05;5.60;;;2.92;;
36327;SDS011;22354;50.012;8.264;2022-08-03T03:34:30;5.23;;;2.70;;
36327;SDS011;22354;50.012;8.264;2022-08-03T03:36:57;3.90;;;2.50;;
36327;SDS011;22354;50.012;8.264;2022-08-03T03:39:22;5.45;;;2.30;;
36327;SDS011;22354;50.012;8.264;2022-08-03T03:41:48;5.23;;;2.33;;
36327;SDS011;22354;50.012;8.264;2022-08-03T03:44:13;4.33;;;2.50;;
36327;SDS011;22354;50.012;8.264;2022-08-03T03:46:39;5.23;;;2.43;;
36327;SDS011;22354;50.012;8.264;2022-08-03T03:49:04;5.60;;;2.63;;
36327;SDS011;22354;50.012;8.264;2022-08-03T03:51:31;4.20;;;2.67;;
36327;SDS011;22354;50.012;8.264;2022-08-03T03:53:57;5.80;;;2.73;;
36327;SDS011;22354;50.012;8.264;2022-08-03T03:56:23;4.90;;;2.83;;
36327;SDS011;22354;50.012;8.264;2022-08-03T03:58:49;3.80;;;2.60;;
36327;SDS011;22354;50.012;8.264;2022-08-03T04:01:14;5.00;;;2.60;;
36327;SDS011;22354;50.012;8.264;2022-08-03T04:03:40;4.57;;;2.75;;
36327;SDS011;22354;50.012;8.264;2022-08-03T04:06:06;6.03;;;2.57;;
36327;SDS011;22354;50.012;8.264;2022-08-03T04:08:50;5.05;;;3.15;;
36327;SDS011;22354;50.012;8.264;2022-08-03T04:11:38;5.63;;;2.80;;
36327;SDS011;22354;50.012;8.264;2022-08-03T04:14:12;4.15;;;2.42;;
36327;SDS011;22354;50.012;8.264;2022-08-03T04:16:42;5.30;;;3.10;;
36327;SDS011;22354;50.012;8.264;2022-08-03T04:19:13;5.10;;;2.80;;
36327;SDS011;22354;50.012;8.264;2022-08-03T04:21:44;3.67;;;2.70;;
36327;SDS011;22354;50.012;8.264;2022-08-03T04:24:14;3.22;;;2.47;;
36327;SDS011;22354;50.012;8.264;2022-08-03T04:26:40;6.97;;;2.47;;
36327;SDS011;22354;50.012;8.264;2022-08-03T04:29:07;4.17;;;2.47;;
36327;SDS011;22354;50.012;8.264;2022-08-03T04:31:34;7.53;;;2.92;;
36327;SDS011;22354;50.012;8.264;2022-08-03T04:34:01;5.20;;;2.75;;
36327;SDS011;22354;50.012;8.264;2022-08-03T04:36:27;7.55;;;2.80;;
36327;SDS011;22354;50.012;8.264;2022-08-03T04:39:02;6.22;;;2.83;;
36327;SDS011;22354;50.012;8.264;2022-08-03T04:41:30;5.83;;;2.73;;
36327;SDS011;22354;50.012;8.264;2022-08-03T04:43:57;6.50;;;2.70;;
36327;SDS011;22354;50.012;8.264;2022-08-03T04:46:27;4.38;;;2.85;;
36327;SDS011;22354;50.012;8.264;2022-08-03T04:49:01;7.63;;;2.95;;
36327;SDS011;22354;50.012;8.264;2022-08-03T04:51:27;5.88;;;2.97;;
36327;SDS011;22354;50.012;8.264;2022-08-03T04:53:53;8.02;;;3.08;;
36327;SDS011;22354;50.012;8.264;2022-08-03T04:56:19;7.73;;;3.10;;
36327;SDS011;22354;50.012;8.264;2022-08-03T04:58:44;6.10;;;2.80;;
36327;SDS011;22354;50.012;8.264;2022-08-03T05:01:09;6.47;;;3.10;;
36327;SDS011;22354;50.012;8.264;2022-08-03T05:03:35;4.57;;;2.83;;
36327;SDS011;22354;50.012;8.264;2022-08-03T05:06:00;6.05;;;2.60;;
36327;SDS011;22354;50.012;8.264;2022-08-03T05:08:25;4.13;;;2.47;;
36327;SDS011;22354;50.012;8.264;2022-08-03T05:10:51;7.15;;;2.88;;
36327;SDS011;22354;50.012;8.264;2022-08-03T05:13:16;6.25;;;3.00;;
36327;SDS011;22354;50.012;8.264;2022-08-03T05:15:41;2.55;;;2.30;;
36327;SDS011;22354;50.012;8.264;2022-08-03T05:18:07;5.18;;;2.80;;
36327;SDS011;22354;50.012;8.264;2022-08-03T05:20:32;3.38;;;2.45;;
36327;SDS011;22354;50.012;8.264;2022-08-03T05:22:57;4.70;;;2.60;;
36327;SDS011;22354;50.012;8.264;2022-08-03T05:25:25;4.80;;;2.72;;
36327;SDS011;22354;50.012;8.264;2022-08-03T05:27:50;6.07;;;2.63;;
36327;SDS011;22354;50.012;8.264;2022-08-03T05:30:16;7.57;;;3.20;;
36327;SDS011;22354;50.012;8.264;2022-08-03T05:32:41;4.97;;;2.73;;
36327;SDS011;22354;50.012;8.264;2022-08-03T05:35:07;4.57;;;3.07;;
36327;SDS011;22354;50.012;8.264;2022-08-03T05:37:32;4.10;;;2.37;;
36327;SDS011;22354;50.012;8.264;2022-08-03T05:39:57;3.83;;;2.20;;
36327;SDS011;22354;50.012;8.264;2022-08-03T05:42:23;6.87;;;2.20;;
36327;SDS011;22354;50.012;8.264;2022-08-03T05:44:48;5.47;;;2.43;;
36327;SDS011;22354;50.012;8.264;2022-08-03T05:47:13;5.90;;;2.10;;
36327;SDS011;22354;50.012;8.264;2022-08-03T05:49:38;10.13;;;2.30;;
36327;SDS011;22354;50.012;8.264;2022-08-03T05:52:04;5.53;;;2.10;;
36327;SDS011;22354;50.012;8.264;2022-08-03T05:54:29;3.78;;;2.25;;
36327;SDS011;22354;50.012;8.264;2022-08-03T05:56:55;2.28;;;1.90;;
36327;SDS011;22354;50.012;8.264;2022-08-03T05:59:20;6.47;;;2.13;;
36327;SDS011;22354;50.012;8.264;2022-08-03T06:01:46;3.38;;;2.22;;
36327;SDS011;22354;50.012;8.264;2022-08-03T06:04:11;2.25;;;2.05;;
36327;SDS011;22354;50.012;8.264;2022-08-03T06:06:36;3.83;;;2.13;;
36327;SDS011;22354;50.012;8.264;2022-08-03T06:09:02;2.90;;;2.20;;
36327;SDS011;22354;50.012;8.264;2022-08-03T06:11:27;3.97;;;2.53;;
36327;SDS011;22354;50.012;8.264;2022-08-03T06:13:52;5.83;;;2.43;;
36327;SDS011;22354;50.012;8.264;2022-08-03T06:16:18;5.87;;;2.30;;
36327;SDS011;22354;50.012;8.264;2022-08-03T06:18:43;4.93;;;2.37;;
36327;SDS011;22354;50.012;8.264;2022-08-03T06:21:08;4.57;;;2.60;;
36327;SDS011;22354;50.012;8.264;2022-08-03T06:23:34;6.20;;;2.33;;
36327;SDS011;22354;50.012;8.264;2022-08-03T06:26:00;3.97;;;2.50;;
36327;SDS011;22354;50.012;8.264;2022-08-03T06:28:25;8.40;;;3.13;;
36327;SDS011;22354;50.012;8.264;2022-08-03T06:30:50;5.97;;;2.67;;
36327;SDS011;22354;50.012;8.264;2022-08-03T06:33:16;6.87;;;3.17;;
36327;SDS011;22354;50.012;8.264;2022-08-03T06:35:41;5.80;;;2.87;;
36327;SDS011;22354;50.012;8.264;2022-08-03T06:38:06;6.13;;;3.07;;
36327;SDS011;22354;50.012;8.264;2022-08-03T06:40:34;4.95;;;2.78;;
36327;SDS011;22354;50.012;8.264;2022-08-03T06:43:04;6.38;;;2.80;;
36327;SDS011;22354;50.012;8.264;2022-08-03T06:45:30;6.32;;;2.70;;
36327;SDS011;22354;50.012;8.264;2022-08-03T06:50:30;4.40;;;2.72;;
36327;SDS011;22354;50.012;8.264;2022-08-03T06:52:56;7.25;;;2.72;;
36327;SDS011;22354;50.012;8.264;2022-08-03T06:55:22;8.40;;;2.53;;
36327;SDS011;22354;50.012;8.264;2022-08-03T06:57:47;5.63;;;2.63;;
36327;SDS011;22354;50.012;8.264;2022-08-03T07:00:13;7.30;;;2.90;;
36327;SDS011;22354;50.012;8.264;2022-08-03T07:02:38;12.43;;;3.65;;
36327;SDS011;22354;50.012;8.264;2022-08-03T07:05:04;9.70;;;2.78;;
36327;SDS011;22354;50.012;8.264;2022-08-03T07:07:30;8.52;;;2.88;;
36327;SDS011;22354;50.012;8.264;2022-08-03T07:09:56;4.47;;;2.53;;
36327;SDS011;22354;50.012;8.264;2022-08-03T07:12:21;6.70;;;2.73;;
36327;SDS011;22354;50.012;8.264;2022-08-03T07:14:46;5.23;;;2.80;;
36327;SDS011;22354;50.012;8.264;2022-08-03T07:17:12;7.23;;;2.40;;
36327;SDS011;22354;50.012;8.264;2022-08-03T07:19:37;7.87;;;2.63;;
36327;SDS011;22354;50.012;8.264;2022-08-03T07:22:02;10.38;;;2.40;;
36327;SDS011;22354;50.012;8.264;2022-08-03T07:24:28;11.63;;;2.50;;
36327;SDS011;22354;50.012;8.264;2022-08-03T07:26:53;6.20;;;2.67;;
36327;SDS011;22354;50.012;8.264;2022-08-03T07:29:19;10.27;;;3.10;;
36327;SDS011;22354;50.012;8.264;2022-08-03T07:31:44;10.90;;;2.53;;
36327;SDS011;22354;50.012;8.264;2022-08-03T07:34:10;12.43;;;3.07;;
36327;SDS011;22354;50.012;8.264;2022-08-03T07:36:35;13.10;;;3.00;;
36327;SDS011;22354;50.012;8.264;2022-08-03T07:39:01;15.30;;;2.88;;
36327;SDS011;22354;50.012;8.264;2022-08-03T07:41:26;10.57;;;2.60;;
36327;SDS011;22354;50.012;8.264;2022-08-03T07:43:51;15.25;;;3.22;;
36327;SDS011;22354;50.012;8.264;2022-08-03T07:46:16;10.50;;;3.03;;
36327;SDS011;22354;50.012;8.264;2022-08-03T07:48:42;12.38;;;2.80;;
36327;SDS011;22354;50.012;8.264;2022-08-03T07:51:07;17.75;;;3.30;;
36327;SDS011;22354;50.012;8.264;2022-08-03T07:53:32;9.68;;;2.50;;
36327;SDS011;22354;50.012;8.264;2022-08-03T07:55:58;10.33;;;2.70;;
36327;SDS011;22354;50.012;8.264;2022-08-03T07:58:23;10.93;;;2.80;;
36327;SDS011;22354;50.012;8.264;2022-08-03T08:00:48;9.90;;;2.90;;
36327;SDS011;22354;50.012;8.264;2022-08-03T08:03:17;16.90;;;2.85;;
36327;SDS011;22354;50.012;8.264;2022-08-03T08:05:43;16.55;;;2.58;;
36327;SDS011;22354;50.012;8.264;2022-08-03T08:08:08;8.90;;;2.47;;
36327;SDS011;22354;50.012;8.264;2022-08-03T08:10:34;5.53;;;2.43;;
36327;SDS011;22354;50.012;8.264;2022-08-03T08:12:59;7.88;;;2.20;;
36327;SDS011;22354;50.012;8.264;2022-08-03T08:15:25;7.60;;;2.30;;
36327;SDS011;22354;50.012;8.264;2022-08-03T08:17:55;8.48;;;2.40;;
36327;SDS011;22354;50.012;8.264;2022-08-03T08:20:26;4.97;;;1.95;;
36327;SDS011;22354;50.012;8.264;2022-08-03T08:22:57;7.97;;;3.20;;
36327;SDS011;22354;50.012;8.264;2022-08-03T08:25:24;8.45;;;3.55;;
36327;SDS011;22354;50.012;8.264;2022-08-03T08:27:50;5.43;;;2.60;;
36327;SDS011;22354;50.012;8.264;2022-08-03T08:30:17;9.77;;;2.47;;
36327;SDS011;22354;50.012;8.264;2022-08-03T08:32:44;5.82;;;1.83;;
36327;SDS011;22354;50.012;8.264;2022-08-03T08:35:10;7.05;;;2.10;;
36327;SDS011;22354;50.012;8.264;2022-08-03T08:37:36;7.47;;;2.00;;
36327;SDS011;22354;50.012;8.264;2022-08-03T08:40:01;8.53;;;1.83;;
36327;SDS011;22354;50.012;8.264;2022-08-03T08:42:26;13.52;;;2.10;;
36327;SDS011;22354;50.012;8.264;2022-08-03T08:44:52;10.90;;;2.20;;
36327;SDS011;22354;50.012;8.264;2022-08-03T08:47:18;3.97;;;2.00;;
36327;SDS011;22354;50.012;8.264;2022-08-03T08:49:52;7.22;;;2.10;;
36327;SDS011;22354;50.012;8.264;2022-08-03T08:52:22;8.20;;;2.00;;
36327;SDS011;22354;50.012;8.264;2022-08-03T08:54:49;6.88;;;1.88;;
36327;SDS011;22354;50.012;8.264;2022-08-03T08:57:16;6.63;;;2.05;;
36327;SDS011;22354;50.012;8.264;2022-08-03T08:59:42;4.53;;;1.97;;
36327;SDS011;22354;50.012;8.264;2022-08-03T09:02:08;5.68;;;1.80;;
36327;SDS011;22354;50.012;8.264;2022-08-03T09:04:34;11.90;;;1.80;;
36327;SDS011;22354;50.012;8.264;2022-08-03T09:07:02;6.32;;;1.90;;
36327;SDS011;22354;50.012;8.264;2022-08-03T09:09:28;4.00;;;2.00;;
36327;SDS011;22354;50.012;8.264;2022-08-03T09:11:55;3.35;;;1.98;;
36327;SDS011;22354;50.012;8.264;2022-08-03T09:14:21;2.97;;;1.95;;
36327;SDS011;22354;50.012;8.264;2022-08-03T09:17:00;3.20;;;2.03;;
36327;SDS011;22354;50.012;8.264;2022-08-03T09:19:26;7.72;;;2.30;;
36327;SDS011;22354;50.012;8.264;2022-08-03T09:22:12;6.40;;;2.42;;
36327;SDS011;22354;50.012;8.264;2022-08-03T09:24:52;5.80;;;1.80;;
36327;SDS011;22354;50.012;8.264;2022-08-03T09:27:19;7.63;;;2.00;;
36327;SDS011;22354;50.012;8.264;2022-08-03T09:29:49;4.78;;;1.80;;
36327;SDS011;22354;50.012;8.264;2022-08-03T09:32:18;6.93;;;1.85;;
36327;SDS011;22354;50.012;8.264;2022-08-03T09:34:49;6.80;;;2.08;;
36327;SDS011;22354;50.012;8.264;2022-08-03T09:37:17;3.78;;;1.67;;
36327;SDS011;22354;50.012;8.264;2022-08-03T09:39:45;3.35;;;1.92;;
36327;SDS011;22354;50.012;8.264;2022-08-03T09:42:12;3.75;;;1.80;;
36327;SDS011;22354;50.012;8.264;2022-08-03T09:44:39;3.90;;;1.70;;
36327;SDS011;22354;50.012;8.264;2022-08-03T09:47:06;7.10;;;1.70;;
36327;SDS011;22354;50.012;8.264;2022-08-03T09:49:34;6.30;;;2.03;;
36327;SDS011;22354;50.012;8.264;2022-08-03T09:52:00;4.15;;;1.73;;
36327;SDS011;22354;50.012;8.264;2022-08-03T09:54:36;5.35;;;1.60;;
36327;SDS011;22354;50.012;8.264;2022-08-03T09:57:02;6.63;;;1.88;;
36327;SDS011;22354;50.012;8.264;2022-08-03T09:59:28;10.17;;;2.10;;
36327;SDS011;22354;50.012;8.264;2022-08-03T10:01:54;3.60;;;1.97;;
36327;SDS011;22354;50.012;8.264;2022-08-03T10:04:21;4.60;;;1.67;;
36327;SDS011;22354;50.012;8.264;2022-08-03T10:07:00;5.35;;;1.60;;
36327;SDS011;22354;50.012;8.264;2022-08-03T10:09:33;5.28;;;1.70;;
36327;SDS011;22354;50.012;8.264;2022-08-03T10:12:09;5.27;;;1.70;;
36327;SDS011;22354;50.012;8.264;2022-08-03T10:14:40;6.43;;;1.55;;
36327;SDS011;22354;50.012;8.264;2022-08-03T10:17:06;3.33;;;1.60;;
36327;SDS011;22354;50.012;8.264;2022-08-03T10:19:33;2.60;;;1.60;;
36327;SDS011;22354;50.012;8.264;2022-08-03T10:22:03;6.93;;;2.17;;
36327;SDS011;22354;50.012;8.264;2022-08-03T10:24:33;4.47;;;1.80;;
36327;SDS011;22354;50.012;8.264;2022-08-03T10:27:00;6.78;;;1.80;;
36327;SDS011;22354;50.012;8.264;2022-08-03T10:29:28;4.97;;;1.58;;
36327;SDS011;22354;50.012;8.264;2022-08-03T10:31:58;4.68;;;1.77;;
36327;SDS011;22354;50.012;8.264;2022-08-03T10:34:30;4.53;;;1.55;;
36327;SDS011;22354;50.012;8.264;2022-08-03T10:36:59;6.00;;;1.52;;
36327;SDS011;22354;50.012;8.264;2022-08-03T10:39:31;3.83;;;1.50;;
36327;SDS011;22354;50.012;8.264;2022-08-03T10:41:57;3.70;;;1.42;;
36327;SDS011;22354;50.012;8.264;2022-08-03T10:44:23;2.50;;;1.25;;
36327;SDS011;22354;50.012;8.264;2022-08-03T10:46:53;1.20;;;1.10;;
36327;SDS011;22354;50.012;8.264;2022-08-03T10:49:20;3.47;;;1.13;;
36327;SDS011;22354;50.012;8.264;2022-08-03T10:51:46;1.60;;;1.30;;
36327;SDS011;22354;50.012;8.264;2022-08-03T11:00:19;3.03;;;1.42;;
36327;SDS011;22354;50.012;8.264;2022-08-03T11:05:36;2.20;;;1.33;;
36327;SDS011;22354;50.012;8.264;2022-08-03T11:08:16;1.53;;;1.10;;
36327;SDS011;22354;50.012;8.264;2022-08-03T11:10:46;1.20;;;1.10;;
36327;SDS011;22354;50.012;8.264;2022-08-03T11:13:16;2.90;;;1.20;;
36327;SDS011;22354;50.012;8.264;2022-08-03T11:15:45;1.00;;;0.88;;
36327;SDS011;22354;50.012;8.264;2022-08-03T11:18:12;2.55;;;1.20;;
36327;SDS011;22354;50.012;8.264;2022-08-03T11:20:52;2.00;;;1.35;;
36327;SDS011;22354;50.012;8.264;2022-08-03T11:23:19;2.70;;;1.58;;
36327;SDS011;22354;50.012;8.264;2022-08-03T11:28:41;2.47;;;1.40;;
36327;SDS011;22354;50.012;8.264;2022-08-03T11:34:05;2.33;;;1.40;;
36327;SDS011;22354;50.012;8.264;2022-08-03T11:37:16;2.38;;;1.27;;
36327;SDS011;22354;50.012;8.264;2022-08-03T11:39:41;1.45;;;1.35;;
36327;SDS011;22354;50.012;8.264;2022-08-03T11:42:52;3.85;;;1.35;;
36327;SDS011;22354;50.012;8.264;2022-08-03T11:44:59;2.33;;;1.00;;
36327;SDS011;22354;50.012;8.264;2022-08-03T11:47:25;2.80;;;1.00;;
36327;SDS011;22354;50.012;8.264;2022-08-03T11:49:54;3.28;;;1.20;;
36327;SDS011;22354;50.012;8.264;2022-08-03T11:52:23;4.60;;;1.10;;
36327;SDS011;22354;50.012;8.264;2022-08-03T11:54:52;3.28;;;1.10;;
36327;SDS011;22354;50.012;8.264;2022-08-03T11:57:31;1.20;;;1.10;;
36327;SDS011;22354;50.012;8.264;2022-08-03T11:59:58;1.38;;;0.90;;
36327;SDS011;22354;50.012;8.264;2022-08-03T12:02:23;2.03;;;0.90;;
36327;SDS011;22354;50.012;8.264;2022-08-03T12:04:52;1.23;;;0.83;;
36327;SDS011;22354;50.012;8.264;2022-08-03T12:07:23;1.40;;;1.30;;
36327;SDS011;22354;50.012;8.264;2022-08-03T12:12:39;6.25;;;1.08;;
36327;SDS011;22354;50.012;8.264;2022-08-03T12:15:05;1.10;;;1.00;;
36327;SDS011;22354;50.012;8.264;2022-08-03T12:17:31;1.33;;;1.10;;
36327;SDS011;22354;50.012;8.264;2022-08-03T12:20:07;2.00;;;1.10;;
36327;SDS011;22354;50.012;8.264;2022-08-03T12:22:34;1.58;;;1.13;;
36327;SDS011;22354;50.012;8.264;2022-08-03T12:25:17;2.30;;;1.00;;
36327;SDS011;22354;50.012;8.264;2022-08-03T12:27:46;2.45;;;1.20;;
36327;SDS011;22354;50.012;8.264;2022-08-03T12:30:12;1.60;;;1.27;;
36327;SDS011;22354;50.012;8.264;2022-08-03T12:32:37;3.70;;;1.35;;
36327;SDS011;22354;50.012;8.264;2022-08-03T12:35:03;2.00;;;1.10;;
36327;SDS011;22354;50.012;8.264;2022-08-03T12:37:29;2.58;;;1.23;;
36327;SDS011;22354;50.012;8.264;2022-08-03T12:39:57;1.40;;;1.30;;
36327;SDS011;22354;50.012;8.264;2022-08-03T12:42:35;4.37;;;1.30;;
36327;SDS011;22354;50.012;8.264;2022-08-03T12:45:35;3.10;;;1.25;;
36327;SDS011;22354;50.012;8.264;2022-08-03T12:47:59;2.30;;;1.10;;
36327;SDS011;22354;50.012;8.264;2022-08-03T12:50:28;1.48;;;1.38;;
36327;SDS011;22354;50.012;8.264;2022-08-03T12:52:58;4.70;;;1.08;;
36327;SDS011;22354;50.012;8.264;2022-08-03T12:55:25;1.58;;;1.00;;
36327;SDS011;22354;50.012;8.264;2022-08-03T12:58:01;1.25;;;1.15;;
36327;SDS011;22354;50.012;8.264;2022-08-03T13:00:28;9.82;;;1.25;;
36327;SDS011;22354;50.012;8.264;2022-08-03T13:03:12;2.95;;;1.20;;
36327;SDS011;22354;50.012;8.264;2022-08-03T13:05:44;1.80;;;1.20;;
36327;SDS011;22354;50.012;8.264;2022-08-03T13:08:19;6.25;;;1.20;;
36327;SDS011;22354;50.012;8.264;2022-08-03T13:10:46;1.13;;;0.98;;
36327;SDS011;22354;50.012;8.264;2022-08-03T13:13:12;1.48;;;1.02;;
36327;SDS011;22354;50.012;8.264;2022-08-03T13:15:38;4.47;;;1.33;;
36327;SDS011;22354;50.012;8.264;2022-08-03T13:18:03;2.90;;;1.60;;
36327;SDS011;22354;50.012;8.264;2022-08-03T13:20:29;2.77;;;1.47;;
36327;SDS011;22354;50.012;8.264;2022-08-03T13:22:54;1.30;;;1.20;;
36327;SDS011;22354;50.012;8.264;2022-08-03T13:25:20;1.30;;;1.00;;
36327;SDS011;22354;50.012;8.264;2022-08-03T13:27:46;1.52;;;1.08;;
36327;SDS011;22354;50.012;8.264;2022-08-03T13:30:12;1.23;;;0.90;;
36327;SDS011;22354;50.012;8.264;2022-08-03T13:32:38;2.72;;;1.25;;
36327;SDS011;22354;50.012;8.264;2022-08-03T13:35:04;2.40;;;1.10;;
36327;SDS011;22354;50.012;8.264;2022-08-03T13:37:30;1.17;;;1.00;;
36327;SDS011;22354;50.012;8.264;2022-08-03T13:39:56;1.70;;;1.05;;
36327;SDS011;22354;50.012;8.264;2022-08-03T13:42:21;2.35;;;1.48;;
36327;SDS011;22354;50.012;8.264;2022-08-03T13:44:47;1.55;;;1.10;;
36327;SDS011;22354;50.012;8.264;2022-08-03T13:47:12;1.63;;;1.10;;
36327;SDS011;22354;50.012;8.264;2022-08-03T13:49:37;1.93;;;0.97;;
36327;SDS011;22354;50.012;8.264;2022-08-03T13:52:03;1.70;;;1.20;;
36327;SDS011;22354;50.012;8.264;2022-08-03T13:54:28;4.30;;;1.10;;
36327;SDS011;22354;50.012;8.264;2022-08-03T13:56:54;3.78;;;1.95;;
36327;SDS011;22354;50.012;8.264;2022-08-03T13:59:23;4.07;;;1.10;;
36327;SDS011;22354;50.012;8.264;2022-08-03T14:01:49;3.00;;;1.13;;
36327;SDS011;22354;50.012;8.264;2022-08-03T14:04:15;2.27;;;1.10;;
36327;SDS011;22354;50.012;8.264;2022-08-03T14:06:41;2.03;;;1.13;;
36327;SDS011;22354;50.012;8.264;2022-08-03T14:09:09;1.20;;;0.98;;
36327;SDS011;22354;50.012;8.264;2022-08-03T14:11:38;1.50;;;1.15;;
36327;SDS011;22354;50.012;8.264;2022-08-03T14:14:07;5.32;;;1.23;;
36327;SDS011;22354;50.012;8.264;2022-08-03T14:16:32;1.27;;;1.17;;
36327;SDS011;22354;50.012;8.264;2022-08-03T14:18:58;1.77;;;1.20;;
36327;SDS011;22354;50.012;8.264;2022-08-03T14:21:23;1.50;;;1.40;;
36327;SDS011;22354;50.012;8.264;2022-08-03T14:23:48;1.40;;;1.10;;
36327;SDS011;22354;50.012;8.264;2022-08-03T14:26:14;1.10;;;1.00;;
36327;SDS011;22354;50.012;8.264;2022-08-03T14:28:39;2.00;;;1.10;;
36327;SDS011;22354;50.012;8.264;2022-08-03T14:31:05;2.75;;;1.20;;
36327;SDS011;22354;50.012;8.264;2022-08-03T14:33:30;4.40;;;1.10;;
36327;SDS011;22354;50.012;8.264;2022-08-03T14:35:56;1.50;;;1.13;;
36327;SDS011;22354;50.012;8.264;2022-08-03T14:38:21;1.30;;;1.20;;
36327;SDS011;22354;50.012;8.264;2022-08-03T14:40:47;1.63;;;1.33;;
36327;SDS011;22354;50.012;8.264;2022-08-03T14:43:13;2.38;;;1.13;;
36327;SDS011;22354;50.012;8.264;2022-08-03T14:45:42;1.60;;;1.20;;
36327;SDS011;22354;50.012;8.264;2022-08-03T14:48:07;2.80;;;1.15;;
36327;SDS011;22354;50.012;8.264;2022-08-03T14:50:34;2.17;;;1.10;;
36327;SDS011;22354;50.012;8.264;2022-08-03T14:52:59;1.67;;;1.58;;
36327;SDS011;22354;50.012;8.264;2022-08-03T14:55:24;3.40;;;1.37;;
36327;SDS011;22354;50.012;8.264;2022-08-03T14:57:49;1.87;;;1.00;;
36327;SDS011;22354;50.012;8.264;2022-08-03T15:00:15;3.50;;;1.10;;
36327;SDS011;22354;50.012;8.264;2022-08-03T15:02:40;2.40;;;1.40;;
36327;SDS011;22354;50.012;8.264;2022-08-03T15:05:06;2.13;;;1.20;;
36327;SDS011;22354;50.012;8.264;2022-08-03T15:07:31;2.72;;;0.88;;
36327;SDS011;22354;50.012;8.264;2022-08-03T15:09:57;1.27;;;1.17;;
36327;SDS011;22354;50.012;8.264;2022-08-03T15:12:23;2.10;;;1.10;;
36327;SDS011;22354;50.012;8.264;2022-08-03T15:14:49;1.42;;;1.15;;
36327;SDS011;22354;50.012;8.264;2022-08-03T15:17:14;3.20;;;1.20;;
36327;SDS011;22354;50.012;8.264;2022-08-03T15:19:39;1.00;;;1.00;;
36327;SDS011;22354;50.012;8.264;2022-08-03T15:22:05;1.67;;;1.40;;
36327;SDS011;22354;50.012;8.264;2022-08-03T15:24:30;3.60;;;1.37;;